Time;durP1;ratioP1;P1;durP2;ratioP2;P2;SDS_P1;SDS_P2;PMS_P1;PMS_P2;Temp;Humidity;BMP_temperature;BMP_pressure;BME280_temperature;BME280_humidity;BME280_pressure;Samples;Min_cycle;Max_cycle;Signal;HPM_P1;HPM_P2
2022/12/18 00:00:40;;;;;;;7.32;4.07;;;;;;;-12.62;78.76;99195.41;4892110;28;20036;-66
2022/12/18 00:03:45;;;;;;;8.50;3.65;;;;;;;-12.60;77.92;99187.94;4964276;28;20436;-66
2022/12/18 00:09:36;;;;;;;5.65;3.58;;;;;;;-12.89;77.16;99103.25;4930924;28;20033;-67
2022/12/18 00:15:11;;;;;;;6.72;3.47;;;;;;;-12.14;76.73;99175.44;4926217;28;20049;-66
2022/12/18 00:17:52;;;;;;;6.35;4.03;;;;;;;-12.06;76.69;99179.22;4936879;28;20044;-66
2022/12/18 00:20:32;;;;;;;8.30;3.75;;;;;;;-12.00;76.19;99178.72;4935261;28;20052;-66
2022/12/18 00:23:20;;;;;;;6.20;3.90;;;;;;;-12.02;76.32;99166.03;4912720;28;20071;-67
2022/12/18 00:26:11;;;;;;;10.45;4.03;;;;;;;-11.87;76.44;99171.03;4930302;28;20048;-69
2022/12/18 00:31:48;;;;;;;8.30;2.97;;;;;;;-11.81;75.71;99140.22;4930587;28;20040;-65
2022/12/18 00:34:38;;;;;;;11.95;4.65;;;;;;;-11.75;75.60;99146.47;4931862;28;20244;-67
2022/12/18 00:37:18;;;;;;;6.60;3.95;;;;;;;-11.73;75.21;99139.88;4902621;28;20044;-66
2022/12/18 00:40:15;;;;;;;6.40;3.30;;;;;;;-11.79;75.25;99128.59;4938902;28;20049;-68
2022/12/18 00:42:57;;;;;;;5.95;3.78;;;;;;;-11.73;75.64;99119.72;4926155;28;20093;-67
2022/12/18 00:45:56;;;;;;;4.82;3.20;;;;;;;-11.65;75.27;99126.81;4927776;28;20054;-66
2022/12/18 00:48:38;;;;;;;5.88;3.47;;;;;;;-11.63;74.91;99112.63;4860981;28;20385;-67
2022/12/18 00:51:33;;;;;;;6.75;3.50;;;;;;;-11.64;74.88;99103.34;4904611;28;20040;-66
2022/12/18 00:54:13;;;;;;;7.72;4.15;;;;;;;-11.57;75.43;99105.41;4945670;28;20044;-67
2022/12/18 00:57:07;;;;;;;6.13;3.15;;;;;;;-11.51;74.75;99110.75;4902032;28;20224;-66
2022/12/18 00:59:54;;;;;;;5.35;2.50;;;;;;;-11.61;74.53;99111.06;4894991;28;20035;-66
2022/12/18 01:02:41;;;;;;;5.38;3.33;;;;;;;-11.68;75.02;99096.41;4907375;28;20118;-65
2022/12/18 01:05:40;;;;;;;5.93;3.58;;;;;;;-11.66;75.16;99089.78;4890021;28;20094;-64
2022/12/18 01:08:28;;;;;;;8.07;3.13;;;;;;;-11.51;75.21;99071.28;4918771;28;20056;-64
2022/12/18 01:11:18;;;;;;;6.70;3.78;;;;;;;-11.41;75.04;99091.94;4919664;28;20049;-66
2022/12/18 01:14:10;;;;;;;5.78;3.50;;;;;;;-11.34;74.59;99057.00;4909941;28;20092;-66
2022/12/18 01:17:03;;;;;;;4.72;3.15;;;;;;;-11.09;74.29;99061.63;4872346;28;20059;-66
2022/12/18 01:19:43;;;;;;;7.95;3.58;;;;;;;-11.17;73.79;99059.53;4863753;28;20215;-66
2022/12/18 01:22:22;;;;;;;5.28;3.70;;;;;;;-11.39;73.70;99035.75;4870415;28;20080;-65
2022/12/18 01:25:28;;;;;;;5.28;4.25;;;;;;;-11.30;73.85;99041.25;4907853;28;20101;-67
2022/12/18 01:30:55;;;;;;;8.50;3.33;;;;;;;-11.38;74.32;99026.53;4868917;28;20037;-66
2022/12/18 01:33:51;;;;;;;5.60;3.33;;;;;;;-11.38;74.55;99027.41;4907529;28;20071;-67
2022/12/18 01:36:37;;;;;;;4.32;2.83;;;;;;;-11.20;74.22;99026.59;4814566;28;20109;-66
2022/12/18 01:39:22;;;;;;;5.43;3.28;;;;;;;-11.18;74.14;98995.63;4868175;28;20050;-66
2022/12/18 01:42:16;;;;;;;4.80;2.92;;;;;;;-11.02;73.70;99009.84;4881220;28;20271;-66
2022/12/18 01:45:10;;;;;;;4.63;3.20;;;;;;;-10.88;74.34;98996.25;4847129;28;20045;-66
2022/12/18 01:48:13;;;;;;;7.30;3.53;;;;;;;-10.78;73.99;98986.56;4873567;28;20057;-66
2022/12/18 01:51:00;;;;;;;5.30;3.63;;;;;;;-10.59;74.10;98981.59;4912368;28;20507;-66
2022/12/18 01:53:39;;;;;;;5.45;3.50;;;;;;;-10.40;73.62;98974.88;4875709;28;20090;-67
2022/12/18 01:56:26;;;;;;;8.43;4.50;;;;;;;-10.65;72.98;98951.03;4872952;28;20215;-66
2022/12/18 01:59:25;;;;;;;6.85;3.47;;;;;;;-10.64;72.62;98960.31;4869079;28;20049;-67
2022/12/18 02:02:13;;;;;;;10.52;4.28;;;;;;;-10.59;73.10;98953.81;4891002;28;20050;-67
2022/12/18 02:04:54;;;;;;;4.60;2.90;;;;;;;-10.36;72.50;98951.47;4847077;28;20066;-67
2022/12/18 02:07:43;;;;;;;6.50;3.63;;;;;;;-10.17;71.94;98959.06;4897565;28;20041;-67
2022/12/18 02:10:38;;;;;;;4.28;2.95;;;;;;;-9.85;71.19;98944.44;4863891;28;20175;-67
2022/12/18 02:13:28;;;;;;;4.80;3.22;;;;;;;-10.08;70.98;98939.25;4918383;28;20428;-68
2022/12/18 02:16:43;;;;;;;6.55;2.80;;;;;;;-10.43;72.01;98940.25;4907248;28;20273;-66
2022/12/18 02:19:46;;;;;;;5.18;3.13;;;;;;;-10.78;72.96;98936.09;4881999;28;20061;-67
2022/12/18 02:22:48;;;;;;;6.82;3.00;;;;;;;-11.27;73.71;98911.97;4840008;28;20089;-68
2022/12/18 02:25:40;;;;;;;7.15;3.20;;;;;;;-11.36;75.19;98935.06;4883762;28;21101;-66
2022/12/18 02:28:30;;;;;;;4.65;3.17;;;;;;;-11.48;75.79;98919.34;4896928;28;20068;-67
2022/12/18 02:31:34;;;;;;;5.43;2.70;;;;;;;-11.38;76.02;98911.44;4899413;28;20042;-67
2022/12/18 02:34:18;;;;;;;5.68;2.92;;;;;;;-11.36;75.75;98914.88;4820165;28;20114;-66
2022/12/18 02:37:00;;;;;;;5.57;2.80;;;;;;;-11.33;76.10;98899.03;4913766;28;20066;-65
2022/12/18 02:39:57;;;;;;;5.22;2.92;;;;;;;-11.40;76.23;98881.91;4832206;28;20052;-65
2022/12/18 02:43:13;;;;;;;4.40;2.50;;;;;;;-11.34;76.23;98882.19;4890147;28;20448;-66
2022/12/18 02:46:25;;;;;;;4.43;2.90;;;;;;;-11.24;76.41;98863.31;4922650;28;20056;-66
2022/12/18 02:49:34;;;;;;;7.60;3.78;;;;;;;-11.03;76.25;98874.44;4854927;28;20045;-64
2022/12/18 02:52:36;;;;;;;5.28;3.10;;;;;;;-11.03;76.12;98879.47;4886863;28;20107;-64
2022/12/18 02:55:29;;;;;;;8.90;4.47;;;;;;;-11.01;76.41;98877.00;4869613;28;20038;-64
2022/12/18 02:58:16;;;;;;;6.05;3.88;;;;;;;-11.00;75.93;98839.25;4871259;28;20084;-65
2022/12/18 03:01:05;;;;;;;7.10;3.50;;;;;;;-10.97;76.39;98844.41;4875218;28;20054;-66
2022/12/18 03:03:57;;;;;;;4.55;3.00;;;;;;;-10.96;76.31;98820.91;4856243;28;20059;-65
2022/12/18 03:06:38;;;;;;;6.32;3.55;;;;;;;-11.01;76.13;98822.38;4916070;28;20261;-65
2022/12/18 03:09:33;;;;;;;9.07;3.20;;;;;;;-11.03;76.75;98813.88;4906401;28;20061;-66
2022/12/18 03:12:27;;;;;;;5.28;3.55;;;;;;;-10.96;76.27;98805.78;4898325;28;20060;-66
2022/12/18 03:15:14;;;;;;;4.57;3.22;;;;;;;-11.02;76.22;98805.50;4887496;28;20281;-66
2022/12/18 03:21:14;;;;;;;3.92;2.47;;;;;;;-10.84;75.06;98780.25;4895515;28;20054;-65
2022/12/18 03:23:58;;;;;;;7.05;3.53;;;;;;;-10.49;74.92;98804.47;4879179;28;20084;-65
2022/12/18 03:26:51;;;;;;;4.78;3.33;;;;;;;-10.61;73.83;98809.00;4898400;28;20838;-66
2022/12/18 03:29:49;;;;;;;5.90;3.60;;;;;;;-10.62;74.25;98817.38;4907823;28;20044;-65
2022/12/18 03:32:51;;;;;;;5.68;3.58;;;;;;;-10.62;73.88;98812.34;4913610;28;20053;-65
2022/12/18 03:35:46;;;;;;;7.22;4.07;;;;;;;-11.10;74.08;98766.47;4911153;28;20044;-65
2022/12/18 03:38:48;;;;;;;10.10;4.07;;;;;;;-10.93;74.21;98808.47;4848328;28;20036;-65
2022/12/18 03:41:36;;;;;;;5.80;3.53;;;;;;;-11.04;74.20;98781.88;4906576;28;20038;-65
2022/12/18 03:44:27;;;;;;;12.25;4.88;;;;;;;-10.84;74.06;98809.66;4903496;28;20507;-67
2022/12/18 03:47:24;;;;;;;4.80;2.63;;;;;;;-10.88;73.35;98801.97;4912554;28;20071;-65
2022/12/18 03:50:18;;;;;;;7.80;3.00;;;;;;;-10.72;73.27;98810.22;4883749;28;20044;-65
2022/12/18 03:53:30;;;;;;;2.58;2.35;;;;;;;-10.58;72.27;98799.06;4891747;28;20059;-65
2022/12/18 03:56:16;;;;;;;3.63;2.58;;;;;;;-10.60;71.31;98810.75;4927321;28;20092;-65
2022/12/18 03:59:35;;;;;;;5.88;3.10;;;;;;;-10.78;71.03;98812.44;4894217;28;20071;-66
2022/12/18 04:02:13;;;;;;;4.45;3.05;;;;;;;-10.86;71.32;98810.47;4902616;28;20128;-65
2022/12/18 04:04:51;;;;;;;5.93;3.03;;;;;;;-10.98;71.31;98804.88;4882199;28;20092;-62
2022/12/18 04:07:33;;;;;;;5.25;3.20;;;;;;;-11.21;71.81;98755.88;4924758;28;20051;-63
2022/12/18 04:10:16;;;;;;;5.80;3.28;;;;;;;-10.75;71.81;98805.03;4894051;28;20045;-63
2022/12/18 04:13:01;;;;;;;4.68;2.30;;;;;;;-10.58;70.83;98819.25;4889670;28;20045;-63
2022/12/18 04:15:44;;;;;;;2.90;2.58;;;;;;;-10.63;69.20;98810.63;4885652;28;20045;-63
2022/12/18 04:18:36;;;;;;;4.93;2.10;;;;;;;-10.82;67.75;98803.03;4876881;28;20040;-63
2022/12/18 04:21:23;;;;;;;4.43;2.10;;;;;;;-10.92;67.59;98787.47;4883909;28;20157;-62
2022/12/18 04:24:20;;;;;;;3.83;2.55;;;;;;;-10.84;66.59;98809.66;4899372;28;20111;-62
2022/12/18 04:27:06;;;;;;;2.67;2.20;;;;;;;-10.97;64.76;98824.25;4927510;28;20329;-62
2022/12/18 04:29:50;;;;;;;3.67;2.33;;;;;;;-11.02;64.49;98820.66;4910231;28;20056;-63
2022/12/18 04:32:29;;;;;;;3.47;2.40;;;;;;;-10.99;64.01;98815.72;4863005;28;20055;-63
2022/12/18 04:35:39;;;;;;;3.17;2.15;;;;;;;-10.97;63.59;98824.25;4845923;28;20358;-62
2022/12/18 04:38:23;;;;;;;4.07;2.08;;;;;;;-11.10;62.31;98825.34;4923521;28;20052;-62
2022/12/18 04:40:59;;;;;;;3.90;2.28;;;;;;;-11.12;63.25;98808.41;4874197;28;20118;-64
2022/12/18 04:43:49;;;;;;;5.38;2.38;;;;;;;-11.02;63.55;98807.19;4898011;28;20045;-63
2022/12/18 04:46:28;;;;;;;3.38;1.80;;;;;;;-10.92;63.60;98802.59;4879998;28;20251;-62
2022/12/18 04:49:13;;;;;;;2.53;1.95;;;;;;;-10.83;62.96;98808.84;4888453;28;20048;-64
2022/12/18 04:51:45;;;;;;;;;;;;;;;-10.81;61.31;98819.88;4899477;28;20053;-63
2022/12/18 04:54:54;;;;;;;2.20;1.98;;;;;;;-10.95;60.75;98805.00;4910394;28;19924;-63
2022/12/18 04:57:38;;;;;;;2.05;1.83;;;;;;;-10.90;59.66;98825.41;4916018;28;20056;-62
2022/12/18 05:00:45;;;;;;;4.10;2.28;;;;;;;-10.99;58.94;98820.78;4863378;28;20068;-62
2022/12/18 05:03:45;;;;;;;1.88;1.77;;;;;;;-11.11;58.77;98815.16;4892520;28;20064;-63
2022/12/18 05:06:38;;;;;;;4.13;2.45;;;;;;;-11.27;58.96;98817.81;4884157;28;20057;-62
2022/12/18 05:09:14;;;;;;;2.47;1.80;;;;;;;-11.34;59.42;98822.53;4872856;28;20438;-63
2022/12/18 05:11:56;;;;;;;6.88;2.10;;;;;;;-11.44;58.51;98820.38;4871178;28;20120;-63
2022/12/18 05:14:37;;;;;;;4.38;2.42;;;;;;;-11.46;59.39;98816.91;4883567;28;20053;-63
2022/12/18 05:17:29;;;;;;;2.05;1.83;;;;;;;-11.51;59.09;98803.25;4877745;28;20071;-62
2022/12/18 05:20:25;;;;;;;2.53;2.22;;;;;;;-11.57;58.68;98808.00;4909075;28;20067;-62
2022/12/18 05:23:01;;;;;;;2.35;2.15;;;;;;;-11.57;59.38;98815.56;4918613;28;20045;-61
2022/12/18 05:25:50;;;;;;;3.33;2.20;;;;;;;-11.82;60.10;98771.56;4851118;28;20052;-62
2022/12/18 05:28:35;;;;;;;3.97;1.80;;;;;;;-12.07;59.95;98718.34;4895766;28;20050;-62
2022/12/18 05:31:24;;;;;;;3.53;2.50;;;;;;;-11.45;59.84;98813.63;4894136;28;20053;-63
2022/12/18 05:34:28;;;;;;;2.72;1.90;;;;;;;-11.56;60.43;98795.47;4908201;28;20042;-62
2022/12/18 05:37:39;;;;;;;2.42;2.22;;;;;;;-11.59;60.12;98799.50;4921337;28;20080;-62
2022/12/18 05:43:17;;;;;;;3.25;2.20;;;;;;;-11.72;61.45;98793.88;4905725;28;20360;-63
2022/12/18 05:46:00;;;;;;;2.85;2.10;;;;;;;-12.03;61.94;98750.41;4845877;28;20044;-61
2022/12/18 05:51:48;;;;;;;4.40;2.28;;;;;;;-11.77;63.14;98789.41;4839538;28;20053;-64
2022/12/18 05:54:53;;;;;;;2.58;2.25;;;;;;;-11.79;63.25;98786.81;4812114;28;20054;-64
2022/12/18 05:57:44;;;;;;;2.35;2.15;;;;;;;-11.79;63.34;98784.28;4864892;28;20584;-65
2022/12/18 06:00:35;;;;;;;4.68;2.53;;;;;;;-11.82;63.45;98789.19;4841800;28;20276;-64
2022/12/18 06:03:28;;;;;;;4.72;2.42;;;;;;;-11.88;63.37;98766.28;4863373;28;20138;-65
2022/12/18 06:06:16;;;;;;;3.80;2.28;;;;;;;-11.94;63.33;98765.97;4890345;28;20113;-66
2022/12/18 06:09:09;;;;;;;2.75;2.42;;;;;;;-11.91;63.90;98766.09;4858406;28;20060;-65
2022/12/18 06:12:06;;;;;;;2.40;2.20;;;;;;;-11.94;64.50;98755.88;4845628;28;20646;-65
2022/12/18 06:14:57;;;;;;;4.97;2.63;;;;;;;-11.95;64.59;98765.09;4853345;28;20053;-65
2022/12/18 06:17:42;;;;;;;3.00;2.58;;;;;;;-11.98;64.55;98764.97;4860484;28;20068;-64
2022/12/18 06:20:30;;;;;;;4.63;2.17;;;;;;;-12.08;63.99;98751.84;4827575;28;20090;-64
2022/12/18 06:23:23;;;;;;;3.78;2.20;;;;;;;-12.17;63.98;98743.06;4854878;28;20038;-64
2022/12/18 06:26:18;;;;;;;3.10;2.05;;;;;;;-12.24;64.22;98750.25;4842553;28;20072;-64
2022/12/18 06:29:08;;;;;;;3.65;2.55;;;;;;;-12.24;64.89;98751.09;4842784;28;20257;-63
2022/12/18 06:34:55;;;;;;;3.08;2.33;;;;;;;-12.25;65.68;98734.28;4844539;28;20059;-64
2022/12/18 06:43:11;;;;;;;3.80;2.58;;;;;;;-12.34;66.37;98723.75;4824927;28;20046;-63
2022/12/18 06:46:02;;;;;;;4.35;2.38;;;;;;;-12.30;66.19;98737.34;4858514;28;21011;-63
2022/12/18 06:48:42;;;;;;;2.75;2.42;;;;;;;-12.21;66.51;98758.78;4879719;28;20045;-63
2022/12/18 06:51:24;;;;;;;2.58;2.20;;;;;;;-12.16;66.36;98754.84;4859153;28;20112;-63
2022/12/18 06:54:06;;;;;;;4.35;2.10;;;;;;;-12.08;66.52;98761.91;4858989;28;20045;-64
2022/12/18 06:56:42;;;;;;;3.67;2.33;;;;;;;-12.12;65.93;98762.56;4853490;28;20050;-63
2022/12/18 06:59:20;;;;;;;2.95;2.28;;;;;;;-12.19;65.79;98774.84;4886394;28;20315;-63
2022/12/18 07:02:25;;;;;;;13.00;5.38;;;;;;;-12.29;65.70;98767.63;4869825;28;20098;-64
2022/12/18 07:05:16;;;;;;;3.88;2.60;;;;;;;-12.32;65.69;98762.44;4836840;28;20062;-64
2022/12/18 07:11:40;;;;;;;5.95;2.28;;;;;;;-12.55;64.78;98783.06;4859372;28;20050;-64
2022/12/18 07:14:26;;;;;;;3.35;2.05;;;;;;;-12.63;65.21;98781.06;4841270;28;20558;-64
2022/12/18 07:17:37;;;;;;;4.22;2.22;;;;;;;-12.69;65.39;98795.81;4853108;28;20064;-64
2022/12/18 07:20:20;;;;;;;6.25;2.70;;;;;;;-12.75;66.07;98790.50;4874314;28;20050;-63
2022/12/18 07:22:58;;;;;;;6.40;2.20;;;;;;;-12.84;66.08;98790.84;4814509;28;20042;-63
2022/12/18 07:25:39;;;;;;;2.03;1.90;;;;;;;-12.90;67.06;98784.63;4849351;28;20286;-63
2022/12/18 07:28:41;;;;;;;3.70;2.50;;;;;;;-12.97;67.37;98792.66;4864418;28;20050;-62
2022/12/18 07:31:28;;;;;;;5.03;2.58;;;;;;;-13.01;67.41;98803.34;4866244;28;20053;-64
2022/12/18 07:34:16;;;;;;;3.42;2.85;;;;;;;-13.25;67.65;98771.13;4881653;28;20054;-64
2022/12/18 07:36:57;;;;;;;4.70;2.63;;;;;;;-13.14;68.01;98800.19;4839228;28;20080;-63
2022/12/18 07:39:39;;;;;;;8.13;2.63;;;;;;;-13.21;68.03;98793.09;4867424;28;20042;-63
2022/12/18 07:45:20;;;;;;;5.53;2.60;;;;;;;-13.35;68.77;98804.97;4875672;28;20069;-62
2022/12/18 07:48:10;;;;;;;4.63;2.67;;;;;;;-13.44;68.91;98801.94;4853726;28;20042;-62
2022/12/18 07:51:06;;;;;;;15.18;2.15;;;;;;;-13.51;69.11;98804.91;4877756;28;20042;-62
2022/12/18 07:54:04;;;;;;;4.68;2.75;;;;;;;-13.57;69.22;98807.09;4846244;28;20095;-62
2022/12/18 07:56:59;;;;;;;4.88;2.80;;;;;;;-13.60;69.52;98815.31;4902229;28;20329;-63
2022/12/18 07:59:56;;;;;;;3.85;2.45;;;;;;;-13.64;69.63;98805.88;4911926;28;20042;-62
2022/12/18 08:02:52;;;;;;;3.72;2.38;;;;;;;-13.60;69.85;98807.78;4912415;28;20051;-62
2022/12/18 08:08:51;;;;;;;4.07;2.58;;;;;;;-13.51;69.93;98810.78;4910762;28;20048;-63
2022/12/18 08:11:37;;;;;;;8.57;4.13;;;;;;;-13.50;69.66;98814.19;4949392;28;20044;-62
2022/12/18 08:14:13;;;;;;;7.20;3.53;;;;;;;-13.42;69.77;98812.09;4914201;28;20094;-62
2022/12/18 08:17:00;;;;;;;6.90;3.58;;;;;;;-13.43;69.95;98815.38;4935112;28;20045;-62
2022/12/18 08:19:56;;;;;;;6.45;3.38;;;;;;;-13.40;70.04;98820.56;4889309;28;20053;-63
2022/12/18 08:22:43;;;;;;;5.93;3.88;;;;;;;-13.38;70.19;98826.53;4929844;28;20049;-63
2022/12/18 08:25:24;;;;;;;6.18;3.42;;;;;;;-13.41;70.08;98828.88;4885524;28;20084;-64
2022/12/18 08:28:14;;;;;;;7.85;3.70;;;;;;;-13.43;70.26;98820.38;4892041;28;20092;-63
2022/12/18 08:31:22;;;;;;;6.50;3.50;;;;;;;-13.48;70.13;98833.59;4868146;28;20059;-64
2022/12/18 08:33:57;;;;;;;7.25;4.65;;;;;;;-13.52;69.99;98823.28;4899749;28;20044;-63
2022/12/18 08:36:41;;;;;;;10.93;3.92;;;;;;;-13.58;70.34;98822.94;4885431;28;20145;-63
2022/12/18 08:39:46;;;;;;;9.50;4.70;;;;;;;-13.62;70.80;98819.41;4918826;28;20063;-63
2022/12/18 08:45:41;;;;;;;8.85;4.00;;;;;;;-13.62;71.34;98819.41;4919785;28;20138;-63
2022/12/18 08:48:22;;;;;;;3.85;2.90;;;;;;;-13.54;71.60;98825.69;4884926;28;20051;-63
2022/12/18 08:51:06;;;;;;;4.90;3.38;;;;;;;-13.53;71.94;98829.94;4906850;28;20139;-63
2022/12/18 08:54:01;;;;;;;19.75;5.00;;;;;;;-13.48;72.18;98823.53;4907973;28;20048;-63
2022/12/18 08:56:47;;;;;;;8.57;3.92;;;;;;;-13.41;71.91;98828.88;4900559;28;20045;-62
2022/12/18 08:59:41;;;;;;;8.55;3.83;;;;;;;-13.42;72.14;98827.16;4887888;28;20047;-64
2022/12/18 09:02:22;;;;;;;14.80;4.63;;;;;;;-13.42;72.37;98827.16;4869512;28;20191;-64
2022/12/18 09:05:05;;;;;;;8.93;4.32;;;;;;;-13.29;71.92;98829.56;4895134;28;20132;-63
2022/12/18 09:07:53;;;;;;;6.68;3.05;;;;;;;-13.23;71.36;98824.81;4920615;28;20051;-63
2022/12/18 09:10:49;;;;;;;14.73;4.90;;;;;;;-13.27;71.11;98808.75;4865216;28;20326;-64
2022/12/18 09:13:26;;;;;;;5.57;3.40;;;;;;;-13.23;71.06;98817.28;4896054;28;20342;-63
2022/12/18 09:16:16;;;;;;;5.68;3.88;;;;;;;-13.09;70.89;98828.94;4856253;28;20071;-63
2022/12/18 09:18:59;;;;;;;5.15;3.70;;;;;;;-13.15;70.75;98818.56;4877655;28;20100;-64
2022/12/18 09:22:00;;;;;;;3.25;2.55;;;;;;;-13.01;70.59;98831.00;4875305;28;20070;-63
2022/12/18 09:25:01;;;;;;;6.03;2.58;;;;;;;-13.35;70.49;98753.81;4852294;28;20046;-63
2022/12/18 09:27:37;;;;;;;2.38;2.05;;;;;;;-13.01;70.27;98805.84;4900564;28;20057;-63
2022/12/18 09:30:28;;;;;;;10.55;2.92;;;;;;;-12.89;70.09;98816.56;4844307;28;20105;-64
2022/12/18 09:33:30;;;;;;;5.40;3.05;;;;;;;-12.90;70.20;98820.72;4853553;28;20384;-63
2022/12/18 09:36:19;;;;;;;2.03;1.90;;;;;;;-12.91;69.93;98823.16;4855592;28;20402;-65
2022/12/18 09:39:08;;;;;;;8.82;3.55;;;;;;;-12.95;69.89;98831.31;4929086;28;20152;-62
2022/12/18 09:42:23;;;;;;;20.70;8.02;;;;;;;-13.00;69.99;98827.69;4880970;28;20055;-62
2022/12/18 09:45:20;;;;;;;6.97;3.50;;;;;;;-13.07;70.09;98807.25;4883469;28;20096;-63
2022/12/18 09:48:05;;;;;;;3.33;2.42;;;;;;;-12.99;70.00;98829.44;4860133;28;20064;-64
2022/12/18 09:51:16;;;;;;;;;;;;;;;-13.01;70.09;98836.03;4901893;28;20045;-65
2022/12/18 09:53:54;;;;;;;4.85;3.13;;;;;;;-13.05;70.19;98835.88;4896002;28;19921;-64
2022/12/18 10:00:00;;;;;;;4.15;2.95;;;;;;;-13.12;70.13;98823.75;4876654;28;20072;-64
2022/12/18 10:02:37;;;;;;;6.65;3.08;;;;;;;-13.14;70.27;98830.34;4902497;28;20041;-63
2022/12/18 10:05:24;;;;;;;4.65;3.35;;;;;;;-13.08;70.53;98838.22;4896826;28;20052;-64
2022/12/18 10:08:46;;;;;;;7.40;3.35;;;;;;;-13.28;70.92;98826.25;4873133;28;20052;-64
2022/12/18 10:12:03;;;;;;;4.03;3.10;;;;;;;-13.08;71.00;98865.88;4807790;28;20044;-64
2022/12/18 10:15:16;;;;;;;3.25;2.05;;;;;;;-13.05;70.91;98871.06;4930426;28;20313;-64
2022/12/18 10:18:26;;;;;;;3.10;2.50;;;;;;;-13.04;71.00;98872.78;4925056;28;20045;-64
2022/12/18 10:21:21;;;;;;;3.03;2.40;;;;;;;-12.99;70.99;98869.66;4899015;28;20048;-65
2022/12/18 10:24:35;;;;;;;7.90;3.30;;;;;;;-13.05;70.82;98855.97;4928761;28;20071;-63
2022/12/18 10:27:20;;;;;;;6.05;3.47;;;;;;;-12.93;70.85;98875.00;4881048;28;20040;-64
2022/12/18 10:30:01;;;;;;;5.22;3.70;;;;;;;-12.94;70.66;98870.78;4884830;28;20200;-64
2022/12/18 10:36:10;;;;;;;7.68;3.92;;;;;;;-12.69;70.99;98895.59;4861213;28;20056;-63
2022/12/18 10:38:44;;;;;;;9.63;4.78;;;;;;;-12.62;70.70;98895.13;4823864;28;20081;-64
2022/12/18 10:48:28;;;;;;;7.43;4.10;;;;;;;-12.70;70.13;98904.78;4861241;28;20049;-64
2022/12/18 10:51:31;;;;;;;8.13;4.68;;;;;;;-12.65;70.30;98913.44;4904956;28;20057;-65
2022/12/18 10:54:08;;;;;;;15.15;8.20;;;;;;;-12.57;70.47;98910.47;4902473;28;20056;-65
2022/12/18 10:57:41;;;;;;;11.52;4.90;;;;;;;-12.46;70.96;98924.47;4902518;28;20061;-64
2022/12/18 11:00:49;;;;;;;15.10;6.00;;;;;;;-12.55;70.87;98918.94;4824276;28;20079;-65
2022/12/18 11:03:42;;;;;;;8.98;4.30;;;;;;;-12.50;70.80;98927.59;4813164;28;20344;-64
2022/12/18 11:06:29;;;;;;;6.50;3.15;;;;;;;-12.43;70.93;98922.09;4825981;28;20054;-64
2022/12/18 11:09:28;;;;;;;19.40;6.25;;;;;;;-12.45;70.34;98926.22;4792350;28;20047;-64
2022/12/18 11:12:33;;;;;;;21.15;6.57;;;;;;;-12.71;70.09;98887.94;4824102;28;20073;-63
2022/12/18 11:15:37;;;;;;;41.75;13.63;;;;;;;-12.92;70.88;98861.66;4773428;28;20047;-64
2022/12/18 11:18:29;;;;;;;23.48;8.05;;;;;;;-12.65;70.76;98913.44;4830443;28;20060;-64
2022/12/18 11:21:45;;;;;;;;;;;;;;;;;;;;;
2022/12/18 11:24:50;;;;;;;13.20;8.13;;;;;;;-12.87;71.63;98930.69;4805504;28;20056;-63
2022/12/18 11:27:54;;;;;;;7.05;5.00;;;;;;;-12.98;71.95;98911.63;4823908;28;20059;-63
2022/12/18 11:31:10;;;;;;;11.15;6.28;;;;;;;-12.93;72.02;98926.16;4760198;28;20050;-63
2022/12/18 11:34:17;;;;;;;12.50;5.72;;;;;;;-12.95;72.29;98916.81;4848868;28;20044;-63
2022/12/18 11:37:18;;;;;;;7.10;3.90;;;;;;;-12.98;72.38;98921.69;4852394;28;20069;-63
2022/12/18 11:40:24;;;;;;;4.97;2.72;;;;;;;-12.97;72.42;98923.44;4850383;28;20151;-64
2022/12/18 11:43:03;;;;;;;4.28;2.80;;;;;;;-13.07;72.70;98904.44;4844535;28;20353;-63
2022/12/18 11:45:53;;;;;;;5.25;2.90;;;;;;;-12.96;72.85;98915.09;4812690;28;20070;-64
2022/12/18 11:51:50;;;;;;;36.45;12.13;;;;;;;-13.05;72.91;98898.72;4859350;28;20041;-63
2022/12/18 11:54:28;;;;;;;15.50;6.38;;;;;;;-13.07;73.18;98912.84;4826695;28;20346;-63
2022/12/18 11:57:10;;;;;;;9.85;5.13;;;;;;;-13.45;73.43;98862.16;4820977;28;20084;-64
2022/12/18 12:00:21;;;;;;;14.30;7.55;;;;;;;-13.72;73.53;98809.63;4841279;28;20069;-63
2022/12/18 12:07:16;;;;;;;3.20;2.53;;;;;;;-12.86;74.11;98917.31;4832783;28;20054;-64
2022/12/18 12:19:40;;;;;;;4.30;2.35;;;;;;;-12.50;73.08;98915.00;4841195;28;20098;-63
2022/12/18 12:22:41;;;;;;;3.80;2.58;;;;;;;-12.54;72.69;98910.63;4800210;28;20059;-64
2022/12/18 12:25:45;;;;;;;3.97;2.33;;;;;;;-12.66;72.34;98906.66;4854133;28;20057;-63
2022/12/18 12:28:56;;;;;;;4.07;2.83;;;;;;;-12.65;72.58;98922.66;4847940;28;20058;-63
2022/12/18 12:31:54;;;;;;;2.85;2.28;;;;;;;-12.64;72.77;98920.19;4838279;28;20054;-62
2022/12/18 12:35:00;;;;;;;3.38;2.15;;;;;;;-12.61;72.62;98930.41;4830820;28;20062;-64
2022/12/18 12:37:58;;;;;;;4.10;2.13;;;;;;;-12.57;72.81;98925.56;4858245;28;20415;-63
2022/12/18 12:40:44;;;;;;;6.28;2.80;;;;;;;-12.54;72.85;98920.69;4877804;28;20054;-63
2022/12/18 12:43:46;;;;;;;2.72;2.38;;;;;;;-12.68;72.78;98905.75;4831114;28;20049;-63
2022/12/18 12:46:40;;;;;;;5.28;2.65;;;;;;;-12.54;72.93;98915.66;4842487;28;20106;-62
2022/12/18 12:49:20;;;;;;;2.22;2.03;;;;;;;-12.66;72.69;98901.63;4866755;28;20072;-62
2022/12/18 12:52:24;;;;;;;3.65;2.47;;;;;;;-12.58;72.58;98921.31;4835102;28;20055;-62
2022/12/18 12:55:17;;;;;;;4.45;2.10;;;;;;;-12.61;72.85;98922.88;4845631;28;20041;-62
2022/12/18 12:58:31;;;;;;;5.15;2.30;;;;;;;-12.57;72.96;98935.63;4813875;28;20056;-62
2022/12/18 13:01:29;;;;;;;5.15;2.40;;;;;;;-12.45;73.14;98932.13;4898084;28;20103;-64
2022/12/18 13:04:24;;;;;;;5.25;2.28;;;;;;;-12.44;73.09;98932.97;4927609;28;20039;-62
2022/12/18 13:07:12;;;;;;;2.13;2.00;;;;;;;-12.41;73.02;98938.16;4896148;28;20052;-65
2022/12/18 13:10:37;;;;;;;2.83;2.10;;;;;;;-12.48;73.04;98941.13;4884221;28;20045;-65
2022/12/18 13:13:20;;;;;;;3.08;1.92;;;;;;;-12.47;73.16;98947.91;4831054;28;20068;-63
2022/12/18 13:16:10;;;;;;;2.58;2.15;;;;;;;-12.51;72.79;98940.97;4916429;28;20418;-62
2022/12/18 13:18:58;;;;;;;5.25;2.60;;;;;;;-12.55;73.12;98939.06;4919808;28;20103;-64
2022/12/18 13:21:59;;;;;;;6.68;3.15;;;;;;;-12.57;73.45;98950.72;4797994;28;20039;-62
2022/12/18 13:24:40;;;;;;;3.85;3.10;;;;;;;-12.51;73.54;98949.38;4830844;28;20515;-65
2022/12/18 13:27:46;;;;;;;4.00;2.88;;;;;;;-12.47;73.73;98950.44;4799731;28;20051;-63
2022/12/18 13:31:02;;;;;;;11.65;5.25;;;;;;;-12.50;73.63;98940.19;4827657;28;20039;-63
2022/12/18 13:33:49;;;;;;;8.48;4.65;;;;;;;-12.49;73.87;98939.41;4797036;28;20098;-63
2022/12/18 13:36:54;;;;;;;5.00;3.67;;;;;;;-12.63;73.72;98932.00;4835996;28;20117;-63
2022/12/18 13:39:45;;;;;;;5.30;2.75;;;;;;;-12.65;73.73;98942.78;4779983;28;20058;-63
2022/12/18 13:45:53;;;;;;;4.45;2.25;;;;;;;-12.37;74.43;98950.13;4842646;28;20046;-62
2022/12/18 13:51:49;;;;;;;2.45;2.20;;;;;;;-12.38;73.96;98943.34;4745537;28;20517;-64
2022/12/18 13:54:37;;;;;;;3.28;2.25;;;;;;;-12.49;73.72;98927.69;4823086;28;20613;-63
2022/12/18 13:57:43;;;;;;;2.45;2.03;;;;;;;-12.74;73.52;98892.81;4802767;28;20047;-63
2022/12/18 14:00:46;;;;;;;2.72;2.15;;;;;;;-12.53;73.71;98952.59;4896871;28;20059;-62
2022/12/18 14:03:44;;;;;;;3.88;2.20;;;;;;;-12.60;73.41;98952.28;4910032;28;20041;-63
2022/12/18 14:06:35;;;;;;;4.25;2.30;;;;;;;-12.64;73.48;98940.31;4909166;28;20048;-62
2022/12/18 14:09:28;;;;;;;3.22;2.10;;;;;;;-12.53;73.40;98957.63;4913711;28;20059;-62
2022/12/18 14:15:08;;;;;;;4.18;2.63;;;;;;;-12.60;73.17;98957.31;4884849;28;20041;-62
2022/12/18 14:18:10;;;;;;;7.95;4.93;;;;;;;-12.64;73.48;98960.44;4896109;28;20079;-63
2022/12/18 14:21:24;;;;;;;12.65;4.88;;;;;;;-12.95;73.33;98946.97;4876090;28;21464;-65
2022/12/18 14:24:24;;;;;;;5.15;2.88;;;;;;;-12.68;73.49;98956.06;4875210;28;20072;-62
2022/12/18 14:27:22;;;;;;;7.70;2.78;;;;;;;-12.71;73.28;98952.50;4883645;28;20037;-64
2022/12/18 14:30:03;;;;;;;17.40;6.25;;;;;;;-12.82;73.46;98959.47;4874173;28;20077;-64
2022/12/18 14:38:42;;;;;;;10.35;3.83;;;;;;;-12.78;73.15;98966.38;4930016;28;20050;-62
2022/12/18 14:41:32;;;;;;;6.05;3.08;;;;;;;-12.70;73.36;98975.22;4877502;28;20101;-62
2022/12/18 14:44:21;;;;;;;4.53;2.90;;;;;;;-12.58;73.11;98969.97;4919734;28;20063;-64
2022/12/18 14:47:34;;;;;;;2.60;2.00;;;;;;;-12.45;72.83;98974.91;4901555;28;21278;-63
2022/12/18 14:50:23;;;;;;;4.20;2.58;;;;;;;-12.40;72.53;98975.16;4876115;28;20078;-63